Camargo, Spain
Current Conditions -  °F | °C
As of 6:00 AM on Saturday 20 Dec 2014 (Local Time) from LEXJ Reporting Station
Broken Clouds Broken Clouds  
Wind Chill: 13°   Ceiling: 2400
Heat Index: 13°   Visibility: 6mi
Dew Point:   Wind: 7mph
Humidity: 77%   Direction: 220°SW
Pressure: 30.5"   Gusts: NA
Location:  43.41°N, 3.88°W
Report Text: LEXJ 200500Z 22006KT 9999 BKN024 13/09 Q1033
Loading
Personal Weather Stations






























Interactive Weather Map New forecast layout! Learn more

10-Day Weather Forecast

Advertisements
Track Severe Weather on mobile